Timeline UpdatesTrip UpdatesNews PostsPvt PostsTravel TipsAdmin PostsConv PostsFollowed PostsChat RequestsBlog PostsPNR Posts

Disclaimer
Search
 
 
Fri Aug 1, 2014 17:24:11 ISTHomeTrainsΣChainsAtlasPNRForumGalleryNewsFAQTripsMembersLoginFeedback
No Recent News for this Train
Other Trains in the News **new
Latest...
⇐ Return Journey: Train# 59812

59811/Haldighati Passenger

Feb 23 2014 (1:14AM)
Change Departure Station:
Change Arrival Station:
Post a Train Travel TipPost a Train Travel Tip **new
Post a Comment/Question/Picture/VideoPost a Comment/Question/Picture/Video
Pantry/Catering
✕ NO Pantry Car
✓ Catering Avbl
Loco/Rake Reversals
KOTA/Kota Junction (5);
RSA - Rake Sharing
Comes to AF as 59811, departs as 59814
Rake/Coach Composition
Loco-SLR+Handicapped-GS1-GS2-GS3-GS4-GS5-S1-S2-S3-GS6-GS7-GS8-SLR; Total Length-13 Coaches
Loco
Rtm-Kota:- WDM 3A RTM shed Kota-AF:- WAM 4E BRC shed Re# 549005-21
News    PNR    Forum    Time-Table    Availability    Fare Chart    Map    Arr/Dep History    Trips    Gallery    ΣChains    X/O    Timeline    
Travel Time: 16h 37m    53 halts    Distance: 605 km    Avg Speed: 36 km/hr
Type: Passenger
Zone: WR/Western
Departs @ 09:55 (Avg 3m late)
Platform# ???
SMTWTFS
Ratlam Junction/RTM 
Arrives @ 02:32 +1 night (Avg 24m late)
Platform# ???
SMTWTFS
Dumariya/DY 

53 halts. 73 intermediate Stations between Ratlam Junction and Dumariya

Show ALL intermediate Stations  Show Old Time-Table

#CodeStation NameX/OArrivesAvgDepartsAvgHaltPFDay#KmSpeedElevZoneAddress
1RTM»Ratlam Junction (7)»  -09:55+3--10.052495mWRRatlam, Madhya Pradesh
2NLINamli  10:10+1210:11+141m--112.963494mWRNamli, Madhya Pradesh
3BRLABrayla Chaurasi  10:22+1410:23+141m--124.556486mWRBadayla Chorasi Rd, Madhya Pradesh
4JAOJaora (2)  10:32+1610:33+161m1132.972476mWRJaora, Madhya Pradesh
5DODDhodhar  10:47+1910:48+201m--149.856478mWRDhodar, Madhya Pradesh
6KHNRKachnara  10:56-10:57-1m--157.357492mWRKachnara, Madhya Pradesh
7DLDDalauda  11:10+2111:11+211m--169.773469mWRDalauda, Madhya Pradesh
8MDSMandsor (2)  11:23+2111:24+231m--184.359436mWRMandsaur, Madhya Pradesh
9PIPPiplia (1)  11:40+2711:41+281m11100.048472mWRPanth Pipalia, Madhya Pradesh
10MLGMalhargarh  11:51+2811:52+291m--1108.024466mWRMalhargarh, Madhya Pradesh
11HKLHarkia KhalX  12:22+1112:23+121m--1120.236455mWRState Highway 31, Rajasthan
12NMHNimach (3)X  12:45+212:55+310m--1133.365490mWRMDR 11A, Madhya Pradesh
13BIWKBisalwas Kalan  13:04+713:05+71m--1143.140477mWRMDR 11A, Rajasthan
14JWOJawad Road  13:15+713:16+71m--1149.862462mWRNayagaon, Rajasthan
15NBHNimbahera (1)  13:26+713:27+81m11160.056441mWRNimbahera, Rajasthan
16GRFGambhiri Road  13:36+913:37+91m11168.455441mWRNational Highway 79, Rajasthan
17SMPShambhupura  13:47+913:48+91m--1177.658423mWRShambhupura, Rajasthan
18CORChittaurgarh Junction (5)X  14:00+514:10+410m--1189.315403mWRChittorgarh, Rajasthan
19CNAChanderiya (2)  14:38-214:40+02m--1196.245408mWRChittorgarh, Rajasthan
20BSSLBasi Beriasal  15:03+315:04+71m--1213.671412mWCRBassi, Rajasthan
21PSLIParsoli  15:18+1115:20+102m--1230.363380mWCRNH 76, Rajasthan
22BNDIBarundini  15:29+1215:30+141m--1239.751373mWCRNational Highway 76, Rajasthan
23MLGHMandalgarh  15:48+1315:50+172m--1254.848382mWCRMandalgarh, Rajasthan
24SMPAShampura  16:10+1716:12+162m--1270.862395mWCRMandalgarh, Rajasthan
25URMLUpramal  16:22+1516:23+181m--1281.052390mWCRMDR 41, Rajasthan
26JNRIJalindri  16:31+2016:32+251m--1288.055 WCR
27SNARSrinagar RajasthanX  16:58+2817:00+272m--1312.013259mWCRShreenagar RJ, Rajasthan
28BUDIBundi  17:48+717:50+82m--1322.335256mWCRBundi, Rajasthan
29THEAThaleraO  18:14-118:15+371m--1336.314248mWCRTalera, Rajasthan
30KOTAKota Junction (5)↵¶20:20+621:00+640m11365.041256mWCRKota, Rajasthan
31GQLGurla  21:08+621:10+62m--1370.453251mWCRSH 33, Rajasthan
32KPTNKeshorai Patan  21:19+521:20+121m--1378.473243mWCRSH 33, Rajasthan
33AREArnetha  21:29+1321:30+141m--1389.361239mWCRShreepura, Rajasthan
34KPZKaprenX  21:39+1321:40+181m--1398.567234mWCRKota - Lalsot Mega Highway, Rajasthan
35GKBGhataka VaranaX  21:49+1921:50+211m--1408.562232mWCRSH 33, Rajasthan
36LBNLaban (2)X  21:59+2122:00+231m--1417.950225mWCRBundi, Rajasthan
37LKELakheri (3)XO  22:09+2322:10+261m--1425.566228mWCRBundi, Rajasthan
38IDGIndargarh Sumerganj Mandi (2)X  22:20+2722:22+332m--1436.478247mWCRIndargarh, Rajasthan
39AMLIAmliX  22:32+3522:34+352m--1449.565233mWCRSawai Madhopur, Rajasthan
40RWJRawania DungarX  22:41+3622:43+432m--1457.156266mWCRSawai Madhopur, Rajasthan
41KTAKushtalaX  22:52+4422:54+452m--1465.627283mWCRNH 116, Rajasthan
42SWMSawai Madhopur Junction (4)XO  23:10+2323:15+235m--1472.777266mWCRSawai Madhopur, Rajasthan
43RNTRanthambhore  23:23+4423:25+442m--1482.9110248mWCRMDR 111, Rajasthan
44MXLMokholi  23:30+4623:35+435m--1492.165242mWCRMDR 111, Rajasthan
45MLZMalarna  23:45+4223:47+432m--1502.927236mWCRSawai Madhopur, Rajasthan
46NMDNomodaX  00:03+3600:04+431m--2510.058238mWCRMDR 111, Rajasthan
47NNWNarayanpur Tatwara (2)  00:14+4300:15+431m--2519.771256mWCRSawai Madhopur, Rajasthan
48LRULalpur UmriX  00:24+4500:25+531m--2530.313276mWCRSH 1, Rajasthan
49GGCGangapur City (3)O  00:55+3101:05+2710m--2536.664270mWCRGangapur, Rajasthan
50COOChhoti Odai  01:17+3501:18+441m--2549.347257mWCRSH 25, Rajasthan
51PDZPiliodaXO  01:28+4301:30+422m--2557.245247mWCRSH 1, Rajasthan
52SMBJShri Mahabirji (3)X  01:48+3301:50+382m--2570.734240mWCRKarauli, Rajasthan
53HANHindaun City (2)X  02:08+2602:10+262m--2580.972230mWCRKarauli, Rajasthan
54FSPFateh Singhpura  02:21+2302:23+222m--2594.171223mWCRState Highway 1, Rajasthan
55DY•Dumariya (2)•  02:32+2402:34+302m--2604.712211mWCRState Highway 1, Rajasthan
56BXNBayana Junction (3)  03:20+903:45+025m--2613.845198mWCRBayana, Rajasthan
57BAMABirambad (1)XO  03:51-03:52-1m12618.246196mNCRDumariya, Rajasthan
58BRBandh Bareta (1)  03:58+1503:59+161m12622.949203mNCRDumariya, Rajasthan
59NGLTNaglatula (1)  04:06-04:07-1m12628.654209mNCRBayana, Rajasthan
60BIQBansi Paharpur (1)  04:14+1704:15+171m12634.950216mNCRRupbas, Rajasthan
61DXKDhana Kherli (1)  04:22-04:23-1m12640.754192mNCRFatehpur Sikri, Uttar Pradesh
62RBSRupbas (2)  04:31+1504:32+171m--2647.940178mNCRJAGNER ROAD, Rajasthan
63AEDAulenda (1)  04:40-04:41-1m12653.259179mNCRKiraoli, Uttar Pradesh
64FTSFatehpur Sikri (2)  04:50+1504:51+161m--2662.138176mNCRAgra, Uttar Pradesh
65SNPRSingarpur (1)  04:59-05:00-1m12667.262168mNCRRupbas, Rajasthan
66KLBKiraoli (1)  05:07+1405:08+161m12674.554174mNCRKiraoli, Uttar Pradesh
67MIQMirhakur (1)  05:17+805:18+71m12682.640172mNCRIdgah Agra, Uttar Pradesh
68PTLIPathauli (1)X  05:27+705:28+71m12688.657174mNCRAgra Fort, Uttar Pradesh
69IDHIdgah Agra Junction (3)  05:36+805:38+82m--2696.16168mNCRAgra, Uttar Pradesh
70AFAgra Fort (3)  06:00+0-22698.3-170mNCRRakabganj, Uttar Pradesh
Scroll to Top
Scroll to Bottom